createdAt,value
2019-01-13T00:01:20.330Z,99763.81
2019-01-13T00:03:49.518Z,99767.94
2019-01-13T00:06:18.296Z,99757.05
2019-01-13T00:08:47.592Z,99756.83
2019-01-13T00:11:16.666Z,99756.14
2019-01-13T00:13:45.752Z,99755.63
2019-01-13T00:16:14.613Z,99753.42
2019-01-13T00:18:43.248Z,99750.15
2019-01-13T00:21:12.159Z,99748.02
2019-01-13T00:23:40.753Z,99748.02
2019-01-13T00:26:09.520Z,99751.88
2019-01-13T00:28:38.617Z,99752.87
2019-01-13T00:31:07.364Z,99757.82
2019-01-13T00:33:35.995Z,99752.70
2019-01-13T00:36:04.933Z,99763.05
2019-01-13T00:38:33.581Z,99764.81
2019-01-13T00:41:02.145Z,99765.31
2019-01-13T00:43:31.122Z,99768.09
2019-01-13T00:45:59.959Z,99777.70
2019-01-13T00:48:28.613Z,99777.92
2019-01-13T00:50:57.261Z,99769.22
2019-01-13T00:53:25.973Z,99788.87
2019-01-13T00:55:55.434Z,99770.91
2019-01-13T00:58:23.990Z,99779.11
2019-01-13T01:00:53.056Z,99777.48
2019-01-13T01:03:21.712Z,99768.77
2019-01-13T01:05:50.318Z,99766.01
2019-01-13T01:08:18.913Z,99773.67
2019-01-13T01:10:47.484Z,99769.32
2019-01-13T01:13:16.378Z,99763.92
2019-01-13T01:15:45.003Z,99764.39
2019-01-13T01:18:13.535Z,99759.20
2019-01-13T01:20:42.313Z,99762.60
2019-01-13T01:23:11.279Z,99768.78
2019-01-13T01:25:39.915Z,99773.09
2019-01-13T01:28:08.438Z,99774.71
2019-01-13T01:30:37.039Z,99774.17
2019-01-13T01:33:05.541Z,99766.83
2019-01-13T01:35:34.212Z,99764.11
2019-01-13T01:38:02.747Z,99769.05
2019-01-13T01:40:31.418Z,99771.50
2019-01-13T01:43:00.033Z,99775.53
2019-01-13T01:45:28.576Z,99773.09
2019-01-13T01:47:57.115Z,99786.41
2019-01-13T01:50:25.706Z,99782.88
2019-01-13T01:52:54.273Z,99783.41
2019-01-13T01:55:22.918Z,99786.95
2019-01-13T01:57:51.452Z,99782.11
2019-01-13T02:00:22.461Z,99791.31
2019-01-13T02:02:51.038Z,99792.72
2019-01-13T02:05:19.822Z,99787.23
2019-01-13T02:07:48.326Z,99780.44
2019-01-13T02:10:18.814Z,99772.08
2019-01-13T02:12:47.385Z,99772.04
2019-01-13T02:15:21.416Z,99776.12
2019-01-13T02:17:50.045Z,99778.88
2019-01-13T02:20:20.002Z,99773.67
2019-01-13T02:22:49.051Z,99777.70
2019-01-13T02:25:25.527Z,99773.17
2019-01-13T02:27:54.319Z,99776.67
2019-01-13T02:30:25.349Z,99774.27
2019-01-13T02:32:53.989Z,99777.75
2019-01-13T02:35:22.566Z,99775.89
2019-01-13T02:37:51.179Z,99782.38
2019-01-13T02:40:21.583Z,99776.94
2019-01-13T02:42:50.564Z,99773.40
2019-01-13T02:45:21.822Z,99764.23
2019-01-13T02:47:50.778Z,99763.92
2019-01-13T02:50:19.338Z,99761.01
2019-01-13T02:52:47.862Z,99764.77
2019-01-13T02:55:16.353Z,99752.77
2019-01-13T02:57:45.344Z,99758.56
2019-01-13T03:00:16.561Z,99758.25
2019-01-13T03:02:45.371Z,99763.42
2019-01-13T03:05:14.469Z,99760.38
2019-01-13T03:07:43.042Z,99757.13
2019-01-13T03:10:14.444Z,99759.34
2019-01-13T03:12:43.345Z,99750.31
2019-01-13T03:15:19.663Z,99752.72
2019-01-13T03:17:45.371Z,99748.06
2019-01-13T03:20:14.784Z,99751.72
2019-01-13T03:22:43.367Z,99756.58
2019-01-13T03:25:14.820Z,99748.33
2019-01-13T03:27:44.120Z,99755.53
2019-01-13T03:30:21.518Z,99752.22
2019-01-13T03:32:50.152Z,99748.19
2019-01-13T03:35:18.824Z,99743.78
2019-01-13T03:37:47.870Z,99747.33
2019-01-13T03:40:21.577Z,99750.55
2019-01-13T03:42:50.307Z,99749.81
2019-01-13T03:45:18.857Z,99743.83
2019-01-13T03:47:47.462Z,99751.18
2019-01-13T03:50:18.423Z,99745.47
2019-01-13T03:52:52.816Z,99738.30
2019-01-13T03:55:20.551Z,99736.94
2019-01-13T03:57:49.244Z,99737.45
2019-01-13T04:00:19.871Z,99735.27
2019-01-13T04:02:48.413Z,99733.14
2019-01-13T04:05:17.013Z,99736.72
2019-01-13T04:07:45.839Z,99739.70
2019-01-13T04:10:16.735Z,99736.68
2019-01-13T04:12:45.561Z,99731.98
2019-01-13T04:15:19.857Z,99732.81
2019-01-13T04:17:48.863Z,99734.45
2019-01-13T04:20:17.370Z,99729.59
2019-01-13T04:22:46.406Z,99721.22
2019-01-13T04:25:15.693Z,99717.63
2019-01-13T04:27:44.284Z,99721.70
2019-01-13T04:30:13.947Z,99718.45
2019-01-13T04:32:42.494Z,99712.78
2019-01-13T04:35:11.007Z,99717.31
2019-01-13T04:37:39.545Z,99699.95
2019-01-13T04:40:10.578Z,99709.73
2019-01-13T04:42:39.510Z,99704.84
2019-01-13T04:45:10.343Z,99700.86
2019-01-13T04:47:38.873Z,99698.90
2019-01-13T04:50:10.538Z,99702.66
2019-01-13T04:52:39.129Z,99704.47
2019-01-13T04:55:07.787Z,99700.40
2019-01-13T04:57:36.343Z,99699.89
2019-01-13T05:00:08.414Z,99700.92
2019-01-13T05:02:37.529Z,99695.20
2019-01-13T05:05:07.599Z,99698.31
2019-01-13T05:07:36.153Z,99697.44
2019-01-13T05:10:07.841Z,99697.92
2019-01-13T05:12:36.451Z,99695.25
2019-01-13T05:15:06.702Z,99698.52
2019-01-13T05:17:35.247Z,99692.05
2019-01-13T05:20:05.467Z,99699.41
2019-01-13T05:22:34.004Z,99694.24
2019-01-13T05:25:02.497Z,99687.70
2019-01-13T05:27:31.053Z,99688.84
2019-01-13T05:29:59.574Z,99693.45
2019-01-13T05:32:28.482Z,99693.70
2019-01-13T05:34:57.005Z,99684.22
2019-01-13T05:37:25.550Z,99684.77
2019-01-13T05:39:54.082Z,99678.45
2019-01-13T05:42:22.699Z,99681.66
2019-01-13T05:44:51.601Z,99687.66
2019-01-13T05:47:20.202Z,99679.54
2019-01-13T05:49:49.074Z,99674.42
2019-01-13T05:52:17.638Z,99668.07
2019-01-13T05:54:46.193Z,99666.16
2019-01-13T05:57:14.764Z,99667.77
2019-01-13T05:59:43.306Z,99660.42
2019-01-13T06:02:11.849Z,99648.95
2019-01-13T06:04:40.339Z,99647.37
2019-01-13T06:07:08.904Z,99651.18
2019-01-13T06:09:37.483Z,99651.99
2019-01-13T06:12:06.039Z,99641.11
2019-01-13T06:14:34.914Z,99637.56
2019-01-13T06:17:03.500Z,99643.77
2019-01-13T06:19:32.383Z,99636.97
2019-01-13T06:22:00.966Z,99633.73
2019-01-13T06:24:29.542Z,99635.33
2019-01-13T06:26:58.134Z,99632.67
2019-01-13T06:29:26.993Z,99626.72
2019-01-13T06:31:56.515Z,99626.09
2019-01-13T06:34:25.250Z,99620.77
2019-01-13T06:36:53.825Z,99623.69
2019-01-13T06:39:22.353Z,99627.39
2019-01-13T06:41:50.892Z,99629.84
2019-01-13T06:44:19.408Z,99621.08
2019-01-13T06:46:48.018Z,99625.14
2019-01-13T06:49:16.589Z,99626.23
2019-01-13T06:51:45.147Z,99626.36
2019-01-13T06:54:13.653Z,99614.64
2019-01-13T06:56:42.291Z,99623.52
2019-01-13T06:59:10.802Z,99640.01
2019-01-13T07:01:39.409Z,99636.41
2019-01-13T07:04:07.939Z,99648.17
2019-01-13T07:06:36.536Z,99635.42
2019-01-13T07:09:06.975Z,99627.48
2019-01-13T07:11:35.578Z,99627.87
2019-01-13T07:14:04.372Z,99622.56
2019-01-13T07:16:32.994Z,99613.32
2019-01-13T07:19:01.506Z,99614.13
2019-01-13T07:21:30.572Z,99613.05
2019-01-13T07:23:59.162Z,99602.70
2019-01-13T07:26:27.727Z,99598.63
2019-01-13T07:28:56.281Z,99598.50
2019-01-13T07:31:25.201Z,99590.39
2019-01-13T07:33:54.203Z,99589.35
2019-01-13T07:36:23.487Z,99580.11
2019-01-13T07:38:52.037Z,99579.45
2019-01-13T07:41:20.573Z,99576.42
2019-01-13T07:43:49.347Z,99581.47
2019-01-13T07:46:17.872Z,99576.38
2019-01-13T07:48:46.452Z,99567.13
2019-01-13T07:51:14.998Z,99556.78
2019-01-13T07:53:43.528Z,99554.05
2019-01-13T07:56:12.037Z,99549.29
2019-01-13T07:58:40.981Z,99547.16
2019-01-13T08:01:09.839Z,99541.19
2019-01-13T08:03:38.568Z,99548.93
2019-01-13T08:06:07.146Z,99534.58
2019-01-13T08:08:35.863Z,99541.72
2019-01-13T08:11:04.522Z,99533.84
2019-01-13T08:13:33.193Z,99538.23
2019-01-13T08:16:01.815Z,99528.03
2019-01-13T08:18:31.056Z,99535.31
2019-01-13T08:21:04.627Z,99531.59
2019-01-13T08:23:33.766Z,99520.41
2019-01-13T08:26:02.534Z,99533.14
2019-01-13T08:28:31.310Z,99520.05
2019-01-13T08:31:00.021Z,99510.89
2019-01-13T08:33:28.860Z,99511.98
2019-01-13T08:35:57.445Z,99509.44
2019-01-13T08:38:26.115Z,99495.62
2019-01-13T08:40:54.797Z,99500.98
2019-01-13T08:43:24.279Z,99494.05
2019-01-13T08:45:53.144Z,99490.50
2019-01-13T08:48:21.725Z,99489.73
2019-01-13T08:50:50.567Z,99481.21
2019-01-13T08:53:19.407Z,99485.30
2019-01-13T08:55:48.110Z,99476.09
2019-01-13T08:58:31.076Z,99477.41
2019-01-13T09:00:59.737Z,99474.87
2019-01-13T09:03:28.409Z,99455.08
2019-01-13T09:05:57.606Z,99455.83
2019-01-13T09:08:27.366Z,99446.44
2019-01-13T09:10:56.018Z,99428.38
2019-01-13T09:13:24.591Z,99430.45
2019-01-13T09:15:53.566Z,99422.04
2019-01-13T09:18:22.152Z,99421.95
2019-01-13T09:20:50.907Z,99425.92
2019-01-13T09:23:19.510Z,99432.56
2019-01-13T09:25:48.092Z,99417.66
2019-01-13T09:28:18.471Z,99419.78
2019-01-13T09:30:49.644Z,99410.69
2019-01-13T09:33:18.203Z,99408.39
2019-01-13T09:35:46.794Z,99404.22
2019-01-13T09:38:16.803Z,99394.31
2019-01-13T09:40:47.379Z,99393.13
2019-01-13T09:43:16.012Z,99382.89
2019-01-13T09:45:47.679Z,99381.07
2019-01-13T09:48:16.304Z,99367.20
2019-01-13T09:50:45.132Z,99363.80
2019-01-13T09:53:14.342Z,99351.60
2019-01-13T09:55:45.074Z,99349.64
2019-01-13T09:58:14.498Z,99338.03
2019-01-13T10:00:43.529Z,99335.27
2019-01-13T10:03:14.140Z,99332.63
2019-01-13T10:05:45.738Z,99329.17
2019-01-13T10:08:15.426Z,99327.35
2019-01-13T10:10:44.390Z,99311.53
2019-01-13T10:13:13.674Z,99300.89
2019-01-13T10:15:45.693Z,99292.59
2019-01-13T10:18:18.100Z,99283.61
2019-01-13T10:20:49.133Z,99275.77
2019-01-13T10:23:18.625Z,99274.86
2019-01-13T10:25:49.834Z,99258.71
2019-01-13T10:28:21.258Z,99249.67
2019-01-13T10:30:51.753Z,99236.92
2019-01-13T10:33:21.333Z,99226.44
2019-01-13T10:35:51.594Z,99219.73
2019-01-13T10:38:20.741Z,99207.03
2019-01-13T10:40:50.735Z,99203.39
2019-01-13T10:43:19.785Z,99202.66
2019-01-13T10:45:48.812Z,99187.50
2019-01-13T10:48:18.702Z,99179.95
2019-01-13T10:50:49.516Z,99175.86
2019-01-13T10:53:20.480Z,99164.49
2019-01-13T10:55:50.292Z,99163.76
2019-01-13T10:58:19.243Z,99155.11
2019-01-13T11:00:47.993Z,99152.34
2019-01-13T11:03:17.163Z,99133.69
2019-01-13T11:05:45.830Z,99126.95
2019-01-13T11:08:16.898Z,99118.33
2019-01-13T11:10:47.636Z,99110.70
2019-01-13T11:13:17.976Z,99108.14
2019-01-13T11:15:50.511Z,99102.63
2019-01-13T11:18:20.772Z,99099.64
2019-01-13T11:20:50.382Z,99091.73
2019-01-13T11:23:22.030Z,99082.63
2019-01-13T11:25:51.130Z,99067.91
2019-01-13T11:28:22.249Z,99062.09
2019-01-13T11:30:51.582Z,99050.01
2019-01-13T11:33:22.008Z,99039.35
2019-01-13T11:35:53.491Z,99056.00
2019-01-13T11:38:23.644Z,99036.77
2019-01-13T11:40:53.138Z,99031.88
2019-01-13T11:43:24.669Z,99022.76
2019-01-13T11:45:55.346Z,98999.97
2019-01-13T11:48:27.153Z,99002.21
2019-01-13T11:50:56.368Z,98989.08
2019-01-13T11:53:25.735Z,98985.88
2019-01-13T11:55:56.188Z,98975.16
2019-01-13T11:58:27.387Z,98963.70
2019-01-13T12:00:56.415Z,98959.88
2019-01-13T12:03:27.602Z,98954.30
2019-01-13T12:05:56.758Z,98941.76
2019-01-13T12:08:26.241Z,98931.34
2019-01-13T12:10:56.487Z,98939.26
2019-01-13T12:13:25.687Z,98926.87
2019-01-13T12:15:55.434Z,98921.89
2019-01-13T12:18:27.146Z,98907.69
2019-01-13T12:21:01.860Z,98896.37
2019-01-13T12:23:31.886Z,98889.02
2019-01-13T12:26:02.205Z,98891.43
2019-01-13T12:28:31.752Z,98877.27
2019-01-13T12:31:02.577Z,98876.20
2019-01-13T12:33:31.936Z,98858.37
2019-01-13T12:36:01.503Z,98869.14
2019-01-13T12:38:30.782Z,98857.70
2019-01-13T12:41:00.211Z,98849.61
2019-01-13T12:43:30.893Z,98839.44
2019-01-13T12:46:00.121Z,98823.05
2019-01-13T12:48:30.697Z,98826.08
2019-01-13T12:51:00.166Z,98809.72
2019-01-13T12:53:31.160Z,98804.21
2019-01-13T12:56:02.223Z,98799.48
2019-01-13T12:58:32.814Z,98783.20
2019-01-13T13:01:03.157Z,98777.59
2019-01-13T13:03:32.708Z,98770.09
2019-01-13T13:06:02.533Z,98766.00
2019-01-13T13:08:32.274Z,98761.75
2019-01-13T13:11:03.785Z,98764.39
2019-01-13T13:13:34.247Z,98774.56
2019-01-13T13:16:03.975Z,98752.48
2019-01-13T13:18:34.101Z,98749.92
2019-01-13T13:21:05.285Z,98743.47
2019-01-13T13:23:37.057Z,98747.66
2019-01-13T13:26:07.793Z,98739.59
2019-01-13T13:28:38.701Z,98726.97
2019-01-13T13:31:08.234Z,98713.81
2019-01-13T13:33:39.178Z,98710.88
2019-01-13T13:36:11.565Z,98712.23
2019-01-13T13:38:43.290Z,98701.40
2019-01-13T13:41:13.653Z,98705.27
2019-01-13T13:43:44.152Z,98697.97
2019-01-13T13:46:12.999Z,98686.09
2019-01-13T13:48:42.988Z,98695.11
2019-01-13T13:51:12.370Z,98692.63
2019-01-13T13:53:41.651Z,98674.50
2019-01-13T13:56:10.908Z,98678.50
2019-01-13T13:58:39.670Z,98676.58
2019-01-13T14:01:09.079Z,98667.69
2019-01-13T14:03:45.512Z,98662.39
2019-01-13T14:06:10.018Z,98665.45
2019-01-13T14:08:39.111Z,98657.83
2019-01-13T14:11:08.597Z,98648.52
2019-01-13T14:13:38.248Z,98647.72
2019-01-13T14:16:07.986Z,98635.44
2019-01-13T14:18:37.259Z,98633.12
2019-01-13T14:21:07.924Z,98621.23
2019-01-13T14:23:37.743Z,98614.56
2019-01-13T14:26:07.422Z,98609.99
2019-01-13T14:28:38.315Z,98612.23
2019-01-13T14:31:08.414Z,98614.13
2019-01-13T14:33:37.846Z,98613.50
2019-01-13T14:36:06.901Z,98608.53
2019-01-13T14:38:36.076Z,98611.08
2019-01-13T14:41:06.033Z,98609.58
2019-01-13T14:43:35.058Z,98600.34
2019-01-13T14:46:04.891Z,98599.12
2019-01-13T14:48:34.491Z,98587.86
2019-01-13T14:51:05.232Z,98589.08
2019-01-13T14:53:37.018Z,98589.56
2019-01-13T14:56:07.065Z,98588.02
2019-01-13T14:58:37.869Z,98587.60
2019-01-13T15:01:08.537Z,98565.11
2019-01-13T15:03:39.113Z,98573.40
2019-01-13T15:06:09.832Z,98571.47
2019-01-13T15:08:39.956Z,98564.12
2019-01-13T15:11:10.758Z,98552.56
2019-01-13T15:13:42.118Z,98548.55
2019-01-13T15:16:12.821Z,98544.70
2019-01-13T15:18:43.144Z,98545.50
2019-01-13T15:21:12.350Z,98537.69
2019-01-13T15:23:43.390Z,98541.91
2019-01-13T15:26:15.211Z,98538.35
2019-01-13T15:28:45.093Z,98531.96
2019-01-13T15:31:14.963Z,98524.60
2019-01-13T15:33:45.219Z,98528.27
2019-01-13T15:36:15.354Z,98524.84
2019-01-13T15:38:46.431Z,98521.04
2019-01-13T15:41:15.776Z,98513.47
2019-01-13T15:43:47.080Z,98524.47
2019-01-13T15:46:17.462Z,98517.08
2019-01-13T15:48:47.359Z,98485.77
2019-01-13T15:51:16.697Z,98481.47
2019-01-13T15:53:46.022Z,98474.16
2019-01-13T15:56:17.262Z,98477.73
2019-01-13T15:58:47.523Z,98478.17
2019-01-13T16:01:16.498Z,98474.53
2019-01-13T16:03:47.350Z,98460.03
2019-01-13T16:06:17.841Z,98452.73
2019-01-13T16:08:49.474Z,98444.06
2019-01-13T16:11:20.217Z,98437.24
2019-01-13T16:13:49.899Z,98429.48
2019-01-13T16:16:20.126Z,98423.75
2019-01-13T16:18:50.610Z,98416.77
2019-01-13T16:21:20.123Z,98415.95
2019-01-13T16:23:49.507Z,98400.27
2019-01-13T16:26:19.244Z,98394.88
2019-01-13T16:28:50.679Z,98387.38
2019-01-13T16:31:21.006Z,98388.46
2019-01-13T16:33:50.377Z,98385.25
2019-01-13T16:36:20.145Z,98374.09
2019-01-13T16:38:49.510Z,98377.30
2019-01-13T16:41:19.781Z,98368.64
2019-01-13T16:43:49.289Z,98376.86
2019-01-13T16:46:19.253Z,98375.38
2019-01-13T16:48:48.389Z,98364.25
2019-01-13T16:51:18.101Z,98369.39
2019-01-13T16:53:48.217Z,98354.94
2019-01-13T16:56:17.504Z,98343.45
2019-01-13T16:58:47.642Z,98344.94
2019-01-13T17:01:17.590Z,98336.39
2019-01-13T17:03:48.691Z,98330.48
2019-01-13T17:06:17.784Z,98328.23
2019-01-13T17:08:48.063Z,98320.72
2019-01-13T17:11:17.718Z,98313.66
2019-01-13T17:13:47.065Z,98311.07
2019-01-13T17:16:17.241Z,98309.35
2019-01-13T17:18:47.879Z,98297.96
2019-01-13T17:21:17.332Z,98293.33
2019-01-13T17:23:47.227Z,98297.52
2019-01-13T17:26:20.448Z,98285.79
2019-01-13T17:28:50.569Z,98283.19
2019-01-13T17:31:20.580Z,98272.92
2019-01-13T17:33:50.963Z,98269.64
2019-01-13T17:36:21.901Z,98267.45
2019-01-13T17:38:52.204Z,98264.06
2019-01-13T17:41:22.529Z,98257.91
2019-01-13T17:43:51.921Z,98264.14
2019-01-13T17:46:22.780Z,98259.12
2019-01-13T17:48:53.643Z,98266.63
2019-01-13T17:51:25.542Z,98246.02
2019-01-13T17:53:56.309Z,98238.75
2019-01-13T17:56:26.387Z,98227.39
2019-01-13T17:58:56.146Z,98223.06
2019-01-13T18:01:27.128Z,98231.38
2019-01-13T18:03:56.889Z,98260.83
2019-01-13T18:06:27.136Z,98223.06
2019-01-13T18:09:09.128Z,98250.19
2019-01-13T18:11:40.025Z,98239.14
2019-01-13T18:14:10.159Z,98242.50
2019-01-13T18:16:39.348Z,98232.30
2019-01-13T18:19:09.169Z,98223.41
2019-01-13T18:21:40.450Z,98210.98
2019-01-13T18:24:10.705Z,98213.33
2019-01-13T18:26:41.044Z,98203.37
2019-01-13T18:29:11.021Z,98219.22
2019-01-13T18:31:40.666Z,98202.73
2019-01-13T18:34:11.241Z,98202.58
2019-01-13T18:36:42.034Z,98204.75
2019-01-13T18:39:11.512Z,98212.48
2019-01-13T18:41:41.640Z,98220.86
2019-01-13T18:44:12.808Z,98198.61
2019-01-13T18:46:42.852Z,98238.72
2019-01-13T18:49:11.902Z,98247.41
2019-01-13T18:51:41.514Z,98236.27
2019-01-13T18:54:11.575Z,98243.14
2019-01-13T18:56:44.435Z,98238.55
2019-01-13T18:59:14.031Z,98226.69
2019-01-13T19:01:44.342Z,98232.48
2019-01-13T19:04:13.667Z,98237.12
2019-01-13T19:06:43.133Z,98244.02
2019-01-13T19:09:13.043Z,98255.87
2019-01-13T19:11:43.971Z,98235.20
2019-01-13T19:14:18.002Z,98246.16
2019-01-13T19:16:51.786Z,98248.64
2019-01-13T19:19:21.401Z,98246.11
2019-01-13T19:21:50.749Z,98248.96
2019-01-13T19:24:20.036Z,98248.40
2019-01-13T19:26:51.956Z,98247.59
2019-01-13T19:29:21.840Z,98251.55
2019-01-13T19:31:51.130Z,98249.77
2019-01-13T19:34:21.222Z,98257.45
2019-01-13T19:36:51.090Z,98258.92
2019-01-13T19:39:20.495Z,98257.56
2019-01-13T19:41:51.738Z,98260.37
2019-01-13T19:44:24.309Z,98260.48
2019-01-13T19:46:53.506Z,98275.88
2019-01-13T19:49:22.860Z,98273.53
2019-01-13T19:51:52.114Z,98276.34
2019-01-13T19:54:21.795Z,98268.95
2019-01-13T19:56:51.169Z,98278.11
2019-01-13T19:59:20.730Z,98278.19
2019-01-13T20:01:49.622Z,98279.41
2019-01-13T20:04:20.330Z,98279.95
2019-01-13T20:06:49.698Z,98280.83
2019-01-13T20:09:20.409Z,98270.04
2019-01-13T20:11:50.974Z,98285.67
2019-01-13T20:14:21.332Z,98292.92
2019-01-13T20:16:52.237Z,98291.56
2019-01-13T20:19:21.842Z,98293.03
2019-01-13T20:21:51.455Z,98285.80
2019-01-13T20:24:22.381Z,98297.98
2019-01-13T20:26:52.866Z,98303.30
2019-01-13T20:29:22.558Z,98288.88
2019-01-13T20:31:51.523Z,98286.13
2019-01-13T20:34:21.801Z,98284.80
2019-01-13T20:36:51.284Z,98283.68
2019-01-13T20:39:21.080Z,98285.91
2019-01-13T20:41:50.622Z,98291.05
2019-01-13T20:44:21.109Z,98297.92
2019-01-13T20:46:50.557Z,98300.08
2019-01-13T20:49:21.197Z,98294.81
2019-01-13T20:51:53.166Z,98294.08
2019-01-13T20:54:22.233Z,98303.89
2019-01-13T20:56:52.529Z,98301.34
2019-01-13T20:59:23.560Z,98293.56
2019-01-13T21:01:54.867Z,98284.38
2019-01-13T21:04:26.568Z,98287.80
2019-01-13T21:06:57.890Z,98291.95
2019-01-13T21:09:29.374Z,98288.36
2019-01-13T21:12:01.642Z,98278.59
2019-01-13T21:14:33.569Z,98291.92
2019-01-13T21:17:05.460Z,98283.47
2019-01-13T21:19:37.683Z,98287.77
2019-01-13T21:22:09.212Z,98298.03
2019-01-13T21:24:41.368Z,98295.93
2019-01-13T21:27:12.226Z,98297.29
2019-01-13T21:29:44.354Z,98292.47
2019-01-13T21:32:17.727Z,98289.56
2019-01-13T21:34:49.536Z,98304.30
2019-01-13T21:37:20.291Z,98309.19
2019-01-13T21:39:49.822Z,98291.56
2019-01-13T21:42:19.288Z,98299.83
2019-01-13T21:44:50.823Z,98292.70
2019-01-13T21:47:20.486Z,98305.17
2019-01-13T21:49:50.308Z,98300.63
2019-01-13T21:52:21.407Z,98301.37
2019-01-13T21:54:51.601Z,98311.59
2019-01-13T21:57:21.403Z,98322.98
2019-01-13T21:59:50.839Z,98309.05
2019-01-13T22:02:20.349Z,98316.23
2019-01-13T22:04:50.952Z,98304.92
2019-01-13T22:07:19.832Z,98309.98
2019-01-13T22:09:52.225Z,98299.09
2019-01-13T22:12:21.773Z,98302.69
2019-01-13T22:14:52.245Z,98315.13
2019-01-13T22:17:21.674Z,98311.11
2019-01-13T22:19:50.382Z,98302.56
2019-01-13T22:22:21.549Z,98312.33
2019-01-13T22:24:50.455Z,98308.50
2019-01-13T22:27:19.511Z,98304.44
2019-01-13T22:29:49.097Z,98307.69
2019-01-13T22:32:18.137Z,98306.72
2019-01-13T22:34:47.461Z,98299.11
2019-01-13T22:37:16.222Z,98308.50
2019-01-13T22:39:51.194Z,98311.22
2019-01-13T22:42:20.042Z,98315.62
2019-01-13T22:44:49.728Z,98294.36
2019-01-13T22:47:19.523Z,98309.51
2019-01-13T22:49:48.227Z,98314.84
2019-01-13T22:52:17.575Z,98317.57
2019-01-13T22:54:46.965Z,98333.88
2019-01-13T22:57:18.228Z,98329.05
2019-01-13T22:59:47.239Z,98332.09
2019-01-13T23:02:17.031Z,98342.84
2019-01-13T23:04:45.972Z,98336.11
2019-01-13T23:07:15.467Z,98336.03
2019-01-13T23:09:46.954Z,98330.31
2019-01-13T23:12:16.664Z,98328.39
2019-01-13T23:14:45.661Z,98337.53
2019-01-13T23:17:15.924Z,98330.72
2019-01-13T23:19:49.464Z,98327.08
2019-01-13T23:22:18.528Z,98332.50
2019-01-13T23:24:47.300Z,98334.51
2019-01-13T23:27:16.845Z,98345.14
2019-01-13T23:29:45.513Z,98352.83
2019-01-13T23:32:15.497Z,98351.47
2019-01-13T23:34:44.397Z,98355.80
2019-01-13T23:37:13.452Z,98359.40
2019-01-13T23:39:42.219Z,98367.47
2019-01-13T23:42:10.892Z,98372.66
2019-01-13T23:44:39.474Z,98376.11
2019-01-13T23:47:08.189Z,98378.62
2019-01-13T23:49:37.670Z,98384.05
2019-01-13T23:52:06.227Z,98401.34
2019-01-13T23:54:35.142Z,98391.00
2019-01-13T23:57:04.176Z,98409.96
2019-01-13T23:59:35.296Z,98412.28
